createdAt,value
2019-05-23T00:01:00.630Z,10.30
2019-05-23T00:03:37.561Z,10.30
2019-05-23T00:06:10.511Z,10.30
2019-05-23T00:08:40.054Z,10.20
2019-05-23T00:11:29.046Z,10.10
2019-05-23T00:13:57.555Z,10.10
2019-05-23T00:16:28.182Z,10.00
2019-05-23T00:18:57.367Z,10.00
2019-05-23T00:21:27.369Z,9.90
2019-05-23T00:23:56.929Z,9.90
2019-05-23T00:26:26.247Z,9.80
2019-05-23T00:29:09.153Z,9.80
2019-05-23T00:31:30.331Z,9.80
2019-05-23T00:33:59.905Z,9.80
2019-05-23T00:36:29.068Z,9.70
2019-05-23T00:38:58.466Z,9.70
2019-05-23T00:41:29.394Z,9.70
2019-05-23T00:43:58.567Z,9.70
2019-05-23T00:46:27.773Z,9.70
2019-05-23T00:48:56.356Z,9.60
2019-05-23T00:51:25.767Z,9.60
2019-05-23T00:53:54.803Z,9.60
2019-05-23T00:56:24.708Z,9.50
2019-05-23T00:58:54.144Z,9.50
2019-05-23T01:01:23.286Z,9.50
2019-05-23T01:03:52.917Z,9.50
2019-05-23T01:06:22.491Z,9.40
2019-05-23T01:08:51.731Z,9.40
2019-05-23T01:11:23.993Z,9.40
2019-05-23T01:13:52.617Z,9.30
2019-05-23T01:16:21.824Z,9.20
2019-05-23T01:18:51.872Z,9.20
2019-05-23T01:21:28.507Z,9.20
2019-05-23T01:23:59.010Z,9.10
2019-05-23T01:26:28.915Z,9.10
2019-05-23T01:28:57.509Z,9.10
2019-05-23T01:31:33.574Z,9.00
2019-05-23T01:34:04.277Z,9.00
2019-05-23T01:36:33.548Z,9.00
2019-05-23T01:39:02.516Z,8.90
2019-05-23T01:41:31.790Z,8.90
2019-05-23T01:44:02.050Z,8.90
2019-05-23T01:46:31.625Z,8.80
2019-05-23T01:49:00.806Z,8.80
2019-05-23T01:51:30.508Z,8.80
2019-05-23T01:53:59.155Z,8.80
2019-05-23T01:56:27.917Z,8.80
2019-05-23T01:58:56.926Z,8.80
2019-05-23T02:01:25.563Z,8.80
2019-05-23T02:03:54.229Z,8.80
2019-05-23T02:06:23.474Z,8.80
2019-05-23T02:08:52.501Z,8.80
2019-05-23T02:11:24.163Z,8.70
2019-05-23T02:13:52.929Z,8.70
2019-05-23T02:16:21.487Z,8.70
2019-05-23T02:18:50.853Z,8.70
2019-05-23T02:21:20.521Z,8.70
2019-05-23T02:23:49.302Z,8.60
2019-05-23T02:26:20.539Z,8.60
2019-05-23T02:28:49.124Z,8.50
2019-05-23T02:31:17.703Z,8.50
2019-05-23T02:33:46.277Z,8.50
2019-05-23T02:36:15.670Z,8.50
2019-05-23T02:39:02.263Z,8.50
2019-05-23T02:41:50.128Z,8.40
2019-05-23T02:44:20.355Z,8.40
2019-05-23T02:46:53.582Z,8.40
2019-05-23T02:49:27.565Z,8.40
2019-05-23T02:51:56.644Z,8.40
2019-05-23T02:54:29.273Z,8.30
2019-05-23T02:56:59.246Z,8.30
2019-05-23T02:59:36.547Z,8.30
2019-05-23T03:02:31.044Z,8.30
2019-05-23T03:04:59.869Z,8.30
2019-05-23T03:07:31.679Z,8.20
2019-05-23T03:10:00.550Z,8.20
2019-05-23T03:12:31.441Z,8.20
2019-05-23T03:15:02.816Z,8.20
2019-05-23T03:17:34.521Z,8.20
2019-05-23T03:20:07.510Z,8.10
2019-05-23T03:23:02.020Z,8.10
2019-05-23T03:25:40.580Z,8.10
2019-05-23T03:28:12.219Z,8.10
2019-05-23T03:30:48.395Z,8.10
2019-05-23T03:33:17.748Z,8.10
2019-05-23T03:36:02.375Z,8.00
2019-05-23T03:38:32.133Z,8.00
2019-05-23T03:41:02.138Z,8.00
2019-05-23T03:43:31.635Z,8.00
2019-05-23T03:46:02.098Z,8.00
2019-05-23T03:48:31.801Z,8.00
2019-05-23T03:51:00.850Z,8.10
2019-05-23T03:53:31.064Z,8.10
2019-05-23T03:56:01.403Z,8.10
2019-05-23T03:58:31.637Z,8.10
2019-05-23T04:01:01.842Z,8.20
2019-05-23T04:03:30.418Z,8.20
2019-05-23T04:05:59.568Z,8.20
2019-05-23T04:08:28.975Z,8.20
2019-05-23T04:10:58.162Z,8.30
2019-05-23T04:13:27.150Z,8.30
2019-05-23T04:15:56.072Z,8.30
2019-05-23T04:18:25.041Z,8.40
2019-05-23T04:20:53.560Z,8.50
2019-05-23T04:23:22.191Z,8.50
2019-05-23T04:25:50.847Z,8.50
2019-05-23T04:28:19.529Z,8.60
2019-05-23T04:30:48.151Z,8.60
2019-05-23T04:33:16.900Z,8.60
2019-05-23T04:35:45.603Z,8.60
2019-05-23T04:38:15.348Z,8.60
2019-05-23T04:40:44.216Z,8.70
2019-05-23T04:43:12.782Z,8.70
2019-05-23T04:45:42.039Z,8.80
2019-05-23T04:48:11.515Z,8.80
2019-05-23T04:50:41.084Z,8.80
2019-05-23T04:53:09.723Z,8.90
2019-05-23T04:55:39.397Z,8.90
2019-05-23T04:58:08.019Z,9.00
2019-05-23T05:00:36.799Z,9.00
2019-05-23T05:03:06.518Z,9.00
2019-05-23T05:05:35.590Z,9.10
2019-05-23T05:08:05.275Z,9.20
2019-05-23T05:10:34.685Z,9.30
2019-05-23T05:13:03.807Z,9.40
2019-05-23T05:15:32.783Z,9.40
2019-05-23T05:18:01.434Z,9.50
2019-05-23T05:20:30.073Z,9.60
2019-05-23T05:22:58.904Z,9.70
2019-05-23T05:25:28.077Z,9.80
2019-05-23T05:27:56.898Z,9.90
2019-05-23T05:30:26.138Z,10.00
2019-05-23T05:32:55.789Z,10.10
2019-05-23T05:35:24.531Z,10.30
2019-05-23T05:37:53.198Z,10.40
2019-05-23T05:40:22.393Z,10.50
2019-05-23T05:42:51.670Z,10.70
2019-05-23T05:45:20.296Z,10.80
2019-05-23T05:47:48.895Z,11.00
2019-05-23T05:50:17.704Z,11.20
2019-05-23T05:52:46.359Z,11.30
2019-05-23T05:55:14.997Z,11.50
2019-05-23T05:57:43.605Z,11.70
2019-05-23T06:00:28.647Z,11.90
2019-05-23T06:03:04.131Z,12.10
2019-05-23T06:05:46.486Z,12.50
2019-05-23T06:08:16.730Z,13.00
2019-05-23T06:10:45.443Z,14.10
2019-05-23T06:13:14.105Z,15.80
2019-05-23T06:15:43.442Z,17.00
2019-05-23T06:18:12.584Z,17.50
2019-05-23T06:20:45.019Z,18.50
2019-05-23T06:23:13.742Z,21.10
2019-05-23T06:25:42.583Z,22.50
2019-05-23T06:28:11.979Z,23.60
2019-05-23T06:30:41.798Z,24.00
2019-05-23T06:33:22.789Z,25.50
2019-05-23T06:35:41.253Z,26.40
2019-05-23T06:38:10.089Z,27.10
2019-05-23T06:40:39.497Z,27.10
2019-05-23T06:43:08.566Z,27.70
2019-05-23T06:45:39.838Z,28.10
2019-05-23T06:48:09.141Z,28.30
2019-05-23T06:50:37.729Z,28.20
2019-05-23T06:53:06.709Z,27.80
2019-05-23T06:55:35.909Z,28.90
2019-05-23T06:58:05.809Z,28.80
2019-05-23T07:00:35.484Z,28.70
2019-05-23T07:03:05.500Z,28.10
2019-05-23T07:05:38.242Z,27.40
2019-05-23T07:08:07.663Z,26.10
2019-05-23T07:10:36.641Z,24.40
2019-05-23T07:13:05.610Z,22.90
2019-05-23T07:15:34.345Z,21.80
2019-05-23T07:18:03.373Z,20.60
2019-05-23T07:20:32.022Z,19.90
2019-05-23T07:23:01.039Z,19.20
2019-05-23T07:25:30.631Z,18.70
2019-05-23T07:27:59.935Z,18.40
2019-05-23T07:30:28.627Z,18.20
2019-05-23T07:32:57.319Z,18.00
2019-05-23T07:35:26.281Z,17.90
2019-05-23T07:37:54.974Z,17.90
2019-05-23T07:40:26.021Z,17.90
2019-05-23T07:42:54.622Z,17.90
2019-05-23T07:45:27.853Z,18.10
2019-05-23T07:47:56.460Z,18.40
2019-05-23T07:50:25.107Z,18.90
2019-05-23T07:52:56.685Z,19.60
2019-05-23T07:55:32.722Z,20.70
2019-05-23T07:58:01.591Z,22.10
2019-05-23T08:00:31.890Z,23.50
2019-05-23T08:03:03.690Z,24.80
2019-05-23T08:05:32.778Z,24.90
2019-05-23T08:08:02.930Z,25.60
2019-05-23T08:10:34.430Z,26.00
2019-05-23T08:13:04.129Z,26.20
2019-05-23T08:15:34.548Z,26.30
2019-05-23T08:18:05.834Z,26.90
2019-05-23T08:20:35.131Z,26.50
2019-05-23T08:23:04.287Z,26.50
2019-05-23T08:25:34.091Z,26.10
2019-05-23T08:28:04.950Z,26.30
2019-05-23T08:30:34.192Z,26.30
2019-05-23T08:33:04.753Z,26.00
2019-05-23T08:35:34.011Z,25.40
2019-05-23T08:38:03.747Z,25.10
2019-05-23T08:40:34.653Z,24.50
2019-05-23T08:43:03.948Z,24.00
2019-05-23T08:45:33.418Z,23.70
2019-05-23T08:48:02.699Z,23.30
2019-05-23T08:50:31.362Z,23.30
2019-05-23T08:53:00.003Z,22.80
2019-05-23T08:55:29.998Z,22.60
2019-05-23T08:57:58.933Z,22.60
2019-05-23T09:00:29.229Z,22.80
2019-05-23T09:02:59.267Z,22.50
2019-05-23T09:05:32.959Z,22.10
2019-05-23T09:08:01.904Z,21.80
2019-05-23T09:10:31.089Z,21.90
2019-05-23T09:12:59.994Z,22.00
2019-05-23T09:15:28.674Z,21.90
2019-05-23T09:17:57.754Z,21.90
2019-05-23T09:20:26.842Z,21.90
2019-05-23T09:22:55.491Z,21.80
2019-05-23T09:25:24.235Z,21.80
2019-05-23T09:27:53.343Z,21.80
2019-05-23T09:30:22.942Z,21.90
2019-05-23T09:32:51.516Z,22.00
2019-05-23T09:35:22.301Z,22.10
2019-05-23T09:37:51.131Z,22.10
2019-05-23T09:40:19.966Z,22.10
2019-05-23T09:42:48.612Z,22.00
2019-05-23T09:45:18.099Z,22.10
2019-05-23T09:47:50.917Z,22.10
2019-05-23T09:50:18.959Z,22.20
2019-05-23T09:52:47.638Z,22.10
2019-05-23T09:55:17.335Z,21.90
2019-05-23T09:57:45.928Z,21.50
2019-05-23T10:00:17.170Z,21.50
2019-05-23T10:02:45.901Z,21.50
2019-05-23T10:05:14.732Z,21.50
2019-05-23T10:07:43.391Z,21.60
2019-05-23T10:10:12.962Z,21.70
2019-05-23T10:12:41.631Z,21.80
2019-05-23T10:15:12.770Z,21.60
2019-05-23T10:17:41.425Z,21.20
2019-05-23T10:20:10.425Z,20.80
2019-05-23T10:22:39.012Z,20.90
2019-05-23T10:25:08.521Z,21.30
2019-05-23T10:27:37.100Z,21.60
2019-05-23T10:30:09.140Z,21.80
2019-05-23T10:32:37.739Z,21.90
2019-05-23T10:35:08.500Z,22.00
2019-05-23T10:37:37.152Z,22.00
2019-05-23T10:40:06.760Z,22.00
2019-05-23T10:42:36.473Z,22.10
2019-05-23T10:45:08.760Z,22.20
2019-05-23T10:47:37.411Z,22.00
2019-05-23T10:50:10.059Z,22.20
2019-05-23T10:52:39.119Z,22.10
2019-05-23T10:55:08.416Z,22.20
2019-05-23T10:57:38.595Z,22.00
2019-05-23T11:00:09.934Z,22.10
2019-05-23T11:02:39.446Z,22.20
2019-05-23T11:05:13.350Z,22.30
2019-05-23T11:07:41.209Z,22.30
2019-05-23T11:10:11.713Z,22.10
2019-05-23T11:12:41.538Z,22.10
2019-05-23T11:15:11.948Z,22.10
2019-05-23T11:17:40.968Z,22.00
2019-05-23T11:20:11.663Z,22.20
2019-05-23T11:22:40.314Z,22.10
2019-05-23T11:25:13.344Z,21.80
2019-05-23T11:27:42.355Z,21.40
2019-05-23T11:30:13.225Z,21.30
2019-05-23T11:32:42.176Z,21.60
2019-05-23T11:35:11.055Z,21.80
2019-05-23T11:37:41.927Z,21.90
2019-05-23T11:40:10.253Z,22.00
2019-05-23T11:42:38.829Z,21.90
2019-05-23T11:45:07.905Z,21.70
2019-05-23T11:47:36.595Z,21.60
2019-05-23T11:50:08.290Z,21.90
2019-05-23T11:52:37.556Z,22.00
2019-05-23T11:55:07.088Z,22.10
2019-05-23T11:57:37.895Z,22.20
2019-05-23T12:00:11.242Z,22.40
2019-05-23T12:02:44.061Z,22.50
2019-05-23T12:05:17.327Z,22.60
2019-05-23T12:07:46.148Z,22.50
2019-05-23T12:10:15.129Z,22.50
2019-05-23T12:12:43.912Z,22.50
2019-05-23T12:15:15.061Z,22.30
2019-05-23T12:17:44.050Z,22.20
2019-05-23T12:20:12.927Z,22.10
2019-05-23T12:22:42.160Z,22.00
2019-05-23T12:25:21.921Z,22.10
2019-05-23T12:27:42.035Z,22.00
2019-05-23T12:30:13.418Z,21.80
2019-05-23T12:32:42.091Z,22.00
2019-05-23T12:35:12.184Z,22.00
2019-05-23T12:37:41.026Z,22.30
2019-05-23T12:40:12.068Z,22.30
2019-05-23T12:42:42.566Z,22.40
2019-05-23T12:45:12.144Z,22.60
2019-05-23T12:48:00.196Z,22.60
2019-05-23T12:50:53.838Z,22.70
2019-05-23T12:53:21.484Z,22.60
2019-05-23T12:55:50.047Z,22.60
2019-05-23T12:58:18.981Z,22.60
2019-05-23T13:00:51.323Z,22.50
2019-05-23T13:03:20.103Z,22.30
2019-05-23T13:05:48.750Z,22.20
2019-05-23T13:08:17.621Z,22.30
2019-05-23T13:10:46.172Z,22.40
2019-05-23T13:13:15.031Z,22.50
2019-05-23T13:15:43.831Z,22.50
2019-05-23T13:18:12.660Z,22.40
2019-05-23T13:20:42.031Z,22.50
2019-05-23T13:23:20.640Z,22.50
2019-05-23T13:25:46.605Z,22.50
2019-05-23T13:28:17.778Z,22.50
2019-05-23T13:30:49.491Z,22.50
2019-05-23T13:33:20.999Z,22.50
2019-05-23T13:35:53.523Z,22.50
2019-05-23T13:38:22.422Z,22.30
2019-05-23T13:40:52.297Z,22.30
2019-05-23T13:43:22.102Z,22.50
2019-05-23T13:45:51.238Z,22.60
2019-05-23T13:48:20.392Z,22.50
2019-05-23T13:50:51.793Z,22.30
2019-05-23T13:53:21.413Z,22.10
2019-05-23T13:55:51.598Z,22.00
2019-05-23T13:58:22.495Z,22.00
2019-05-23T14:00:55.098Z,22.00
2019-05-23T14:03:26.291Z,22.00
2019-05-23T14:05:57.388Z,22.00
2019-05-23T14:08:26.417Z,22.10
2019-05-23T14:10:57.108Z,22.10
2019-05-23T14:13:26.413Z,22.00
2019-05-23T14:15:55.283Z,21.80
2019-05-23T14:18:27.255Z,21.70
2019-05-23T14:20:57.495Z,21.60
2019-05-23T14:23:28.615Z,21.60
2019-05-23T14:25:58.549Z,21.60
2019-05-23T14:28:30.533Z,21.60
2019-05-23T14:31:14.146Z,21.60
2019-05-23T14:33:50.527Z,21.60
2019-05-23T14:36:24.085Z,21.80
2019-05-23T14:38:55.996Z,21.90
2019-05-23T14:41:43.703Z,22.00
2019-05-23T14:43:59.605Z,22.10
2019-05-23T14:46:30.681Z,21.90
2019-05-23T14:49:01.297Z,21.80
2019-05-23T14:51:37.358Z,21.80
2019-05-23T14:54:19.544Z,21.90
2019-05-23T14:56:51.551Z,22.10
2019-05-23T14:59:20.777Z,22.20
2019-05-23T15:01:53.295Z,22.30
2019-05-23T15:04:22.549Z,22.40
2019-05-23T15:06:51.276Z,22.50
2019-05-23T15:09:21.555Z,22.60
2019-05-23T15:11:51.229Z,22.40
2019-05-23T15:14:22.103Z,22.40
2019-05-23T15:16:53.644Z,22.20
2019-05-23T15:19:39.137Z,22.10
2019-05-23T15:21:52.273Z,21.80
2019-05-23T15:24:21.663Z,21.60
2019-05-23T15:26:50.344Z,21.60
2019-05-23T15:29:18.905Z,21.60
2019-05-23T15:32:01.629Z,21.70
2019-05-23T15:34:20.004Z,21.70
2019-05-23T15:36:49.894Z,21.80
2019-05-23T15:39:20.120Z,21.90
2019-05-23T15:41:50.828Z,21.90
2019-05-23T15:44:26.772Z,21.80
2019-05-23T15:46:52.719Z,21.80
2019-05-23T15:49:21.710Z,21.80
2019-05-23T15:51:54.351Z,21.90
2019-05-23T15:54:32.249Z,22.00
2019-05-23T15:57:02.753Z,22.00
2019-05-23T15:59:39.862Z,22.00
2019-05-23T16:02:12.305Z,21.90
2019-05-23T16:04:42.748Z,21.90
2019-05-23T16:07:14.967Z,21.80
2019-05-23T16:09:46.423Z,21.70
2019-05-23T16:12:19.533Z,21.50
2019-05-23T16:14:51.393Z,21.50
2019-05-23T16:17:23.384Z,21.40
2019-05-23T16:19:52.725Z,21.30
2019-05-23T16:22:21.659Z,21.20
2019-05-23T16:24:50.279Z,21.10
2019-05-23T16:27:19.217Z,21.10
2019-05-23T16:29:48.016Z,21.10
2019-05-23T16:32:17.856Z,21.00
2019-05-23T16:34:47.783Z,21.00
2019-05-23T16:37:16.804Z,20.90
2019-05-23T16:39:47.913Z,20.90
2019-05-23T16:42:16.083Z,20.90
2019-05-23T16:44:45.566Z,20.90
2019-05-23T16:47:14.290Z,20.90
2019-05-23T16:49:43.036Z,21.00
2019-05-23T16:52:11.683Z,21.00
2019-05-23T16:54:41.941Z,21.10
2019-05-23T16:57:27.930Z,21.10
2019-05-23T17:00:03.856Z,20.90
2019-05-23T17:02:39.881Z,20.80
2019-05-23T17:05:25.215Z,20.70
2019-05-23T17:07:58.325Z,20.60
2019-05-23T17:10:28.628Z,20.60
2019-05-23T17:12:58.773Z,20.60
2019-05-23T17:15:48.059Z,20.60
2019-05-23T17:18:32.914Z,20.50
2019-05-23T17:21:03.187Z,20.60
2019-05-23T17:23:33.419Z,20.60
2019-05-23T17:26:19.813Z,20.70
2019-05-23T17:28:58.998Z,20.70
2019-05-23T17:31:29.433Z,20.70
2019-05-23T17:33:58.159Z,20.70
2019-05-23T17:36:26.966Z,20.60
2019-05-23T17:38:55.686Z,20.60
2019-05-23T17:41:24.521Z,20.50
2019-05-23T17:43:53.225Z,20.50
2019-05-23T17:46:22.091Z,20.40
2019-05-23T17:48:50.743Z,20.40
2019-05-23T17:51:19.307Z,20.40
2019-05-23T17:53:47.891Z,20.30
2019-05-23T17:56:16.455Z,20.30
2019-05-23T17:58:45.627Z,20.20
2019-05-23T18:01:14.350Z,20.20
2019-05-23T18:03:43.202Z,20.10
2019-05-23T18:06:12.475Z,20.00
2019-05-23T18:08:41.392Z,20.00
2019-05-23T18:11:10.425Z,19.90
2019-05-23T18:13:39.130Z,19.90
2019-05-23T18:16:07.625Z,19.80
2019-05-23T18:18:36.214Z,19.70
2019-05-23T18:21:05.395Z,19.60
2019-05-23T18:23:34.390Z,19.50
2019-05-23T18:26:03.098Z,19.40
2019-05-23T18:28:32.533Z,19.30
2019-05-23T18:31:07.458Z,19.20
2019-05-23T18:33:33.505Z,19.10
2019-05-23T18:36:03.679Z,19.00
2019-05-23T18:38:32.790Z,18.90
2019-05-23T18:41:04.357Z,18.70
2019-05-23T18:43:33.088Z,18.60
2019-05-23T18:46:03.304Z,18.50
2019-05-23T18:48:32.787Z,18.40
2019-05-23T18:51:01.419Z,18.30
2019-05-23T18:53:30.137Z,18.30
2019-05-23T18:55:58.766Z,18.20
2019-05-23T18:58:27.614Z,18.00
2019-05-23T19:01:14.327Z,18.00
2019-05-23T19:03:42.986Z,17.90
2019-05-23T19:06:13.073Z,17.70
2019-05-23T19:08:42.373Z,17.60
2019-05-23T19:11:20.339Z,17.50
2019-05-23T19:13:41.553Z,17.50
2019-05-23T19:16:10.160Z,17.40
2019-05-23T19:18:38.717Z,17.30
2019-05-23T19:21:08.241Z,17.20
2019-05-23T19:23:36.795Z,17.10
2019-05-23T19:26:05.929Z,17.00
2019-05-23T19:28:34.584Z,16.90
2019-05-23T19:31:03.438Z,16.80
2019-05-23T19:33:33.089Z,16.80
2019-05-23T19:36:01.864Z,16.80
2019-05-23T19:38:30.411Z,16.80
2019-05-23T19:40:58.971Z,16.70
2019-05-23T19:43:28.428Z,16.70
2019-05-23T19:45:57.059Z,16.70
2019-05-23T19:48:27.199Z,16.60
2019-05-23T19:50:56.155Z,16.50
2019-05-23T19:53:24.742Z,16.40
2019-05-23T19:55:53.518Z,16.30
2019-05-23T19:58:22.016Z,16.30
2019-05-23T20:00:51.253Z,16.10
2019-05-23T20:03:20.058Z,16.10
2019-05-23T20:05:50.350Z,16.10
2019-05-23T20:08:19.153Z,16.10
2019-05-23T20:10:47.811Z,16.10
2019-05-23T20:13:18.603Z,16.10
2019-05-23T20:15:47.005Z,16.10
2019-05-23T20:18:16.011Z,16.10
2019-05-23T20:20:44.794Z,16.00
2019-05-23T20:23:16.006Z,16.00
2019-05-23T20:25:44.597Z,15.90
2019-05-23T20:28:13.228Z,15.90
2019-05-23T20:30:45.468Z,15.80
2019-05-23T20:33:14.736Z,15.70
2019-05-23T20:35:43.491Z,15.70
2019-05-23T20:38:12.054Z,15.60
2019-05-23T20:40:41.042Z,15.50
2019-05-23T20:43:09.941Z,15.40
2019-05-23T20:45:38.538Z,15.40
2019-05-23T20:48:07.933Z,15.40
2019-05-23T20:50:36.573Z,15.30
2019-05-23T20:53:05.233Z,15.30
2019-05-23T20:55:34.389Z,15.20
2019-05-23T20:58:03.598Z,15.20
2019-05-23T21:00:33.882Z,15.10
2019-05-23T21:03:04.427Z,15.10
2019-05-23T21:05:33.295Z,15.00
2019-05-23T21:08:01.858Z,14.90
2019-05-23T21:10:42.366Z,14.80
2019-05-23T21:13:11.061Z,14.80
2019-05-23T21:15:41.026Z,14.70
2019-05-23T21:18:09.830Z,14.70
2019-05-23T21:20:38.487Z,14.60
2019-05-23T21:23:07.050Z,14.60
2019-05-23T21:25:37.349Z,14.50
2019-05-23T21:28:06.145Z,14.50
2019-05-23T21:30:34.871Z,14.40
2019-05-23T21:33:03.705Z,14.40
2019-05-23T21:35:32.435Z,14.30
2019-05-23T21:38:01.007Z,14.20
2019-05-23T21:40:32.662Z,14.20
2019-05-23T21:43:01.254Z,14.20
2019-05-23T21:45:29.824Z,14.10
2019-05-23T21:47:58.310Z,14.10
2019-05-23T21:50:26.898Z,14.10
2019-05-23T21:52:55.467Z,14.00
2019-05-23T21:55:41.186Z,14.00
2019-05-23T21:58:11.601Z,13.90
2019-05-23T22:01:05.623Z,13.80
2019-05-23T22:03:52.743Z,13.70
2019-05-23T22:06:24.811Z,13.60
2019-05-23T22:08:53.453Z,13.50
2019-05-23T22:11:22.037Z,13.50
2019-05-23T22:13:50.665Z,13.40
2019-05-23T22:16:19.254Z,13.30
2019-05-23T22:18:47.903Z,13.30
2019-05-23T22:21:16.773Z,13.20
2019-05-23T22:23:45.415Z,13.20
2019-05-23T22:26:13.928Z,13.10
2019-05-23T22:28:42.508Z,13.10
2019-05-23T22:31:11.426Z,13.00
2019-05-23T22:33:44.441Z,12.90
2019-05-23T22:36:13.201Z,12.90
2019-05-23T22:38:41.773Z,12.90
2019-05-23T22:41:10.376Z,12.90
2019-05-23T22:43:39.025Z,12.80
2019-05-23T22:46:07.856Z,12.80
2019-05-23T22:48:36.442Z,12.70
2019-05-23T22:51:05.030Z,12.70
2019-05-23T22:53:33.665Z,12.60
2019-05-23T22:56:02.352Z,12.60
2019-05-23T22:58:30.915Z,12.60
2019-05-23T23:00:59.591Z,12.60
2019-05-23T23:03:28.521Z,12.50
2019-05-23T23:05:57.221Z,12.50
2019-05-23T23:08:25.998Z,12.40
2019-05-23T23:10:54.630Z,12.40
2019-05-23T23:13:37.665Z,12.30
2019-05-23T23:15:54.154Z,12.30
2019-05-23T23:18:22.717Z,12.30
2019-05-23T23:20:51.656Z,12.30
2019-05-23T23:23:20.241Z,12.30
2019-05-23T23:25:48.749Z,12.30
2019-05-23T23:28:17.501Z,12.30
2019-05-23T23:30:47.785Z,12.30
2019-05-23T23:33:16.446Z,12.20
2019-05-23T23:35:45.016Z,12.20
2019-05-23T23:38:13.696Z,12.20
2019-05-23T23:40:42.246Z,12.10
2019-05-23T23:43:10.904Z,12.10
2019-05-23T23:45:57.142Z,12.00
2019-05-23T23:48:43.347Z,12.00
2019-05-23T23:51:29.388Z,12.00
2019-05-23T23:54:15.735Z,12.10
2019-05-23T23:57:02.631Z,12.00
2019-05-23T23:59:30.680Z,12.00
